Fristoe, Missouri
Current Conditions -  °F | °C
As of 2:55 PM on Monday 26 Jan 2015 (Local Time) from KGLY Reporting Station
Clear Clear  
Wind Chill: 57°   Ceiling: Unl
Heat Index: 57°   Visibility: 10mi
Dew Point: 37°   Wind: 14mph
Humidity: 48%   Direction: 270°W
Pressure: 29.91"   Gusts: 21mph
Location:  38.3166°N, 93.2711°W
Report Text: KGLY 262055Z AUTO 27012G18KT 10SM CLR 14/03 A2991 RMK AO2
Loading
Personal Weather Stations






























Interactive Weather Map New forecast layout! Learn more

10-Day Weather Forecast

Advertisements
Track Severe Weather on mobile